createdAt,value
2024-04-08T00:00:42.857Z,2.78
2024-04-08T00:03:10.336Z,2.90
2024-04-08T00:05:38.391Z,2.92
2024-04-08T00:08:06.080Z,2.90
2024-04-08T00:10:33.425Z,2.40
2024-04-08T00:13:01.216Z,2.83
2024-04-08T00:15:28.614Z,2.70
2024-04-08T00:17:55.595Z,3.20
2024-04-08T00:20:23.085Z,2.90
2024-04-08T00:22:53.442Z,3.15
2024-04-08T00:25:21.040Z,3.65
2024-04-08T00:27:48.004Z,3.63
2024-04-08T00:30:15.362Z,3.58
2024-04-08T00:32:42.425Z,3.50
2024-04-08T00:35:09.876Z,3.40
2024-04-08T00:37:37.435Z,3.40
2024-04-08T00:40:04.923Z,3.63
2024-04-08T00:42:32.289Z,3.28
2024-04-08T00:44:59.663Z,3.42
2024-04-08T00:47:27.142Z,3.30
2024-04-08T00:49:54.270Z,3.13
2024-04-08T00:52:21.646Z,3.53
2024-04-08T00:54:49.070Z,3.47
2024-04-08T00:57:16.799Z,3.42
2024-04-08T00:59:44.222Z,3.38
2024-04-08T01:02:11.625Z,3.30
2024-04-08T01:04:39.163Z,3.20
2024-04-08T01:07:06.497Z,3.30
2024-04-08T01:09:34.013Z,3.60
2024-04-08T01:12:00.978Z,3.70
2024-04-08T01:14:28.364Z,3.42
2024-04-08T01:16:55.726Z,3.23
2024-04-08T01:19:25.898Z,3.58
2024-04-08T01:21:52.855Z,3.85
2024-04-08T01:24:20.230Z,3.83
2024-04-08T01:26:47.185Z,3.97
2024-04-08T01:29:14.576Z,3.70
2024-04-08T01:31:41.503Z,4.10
2024-04-08T01:34:08.863Z,3.53
2024-04-08T01:36:36.220Z,3.40
2024-04-08T01:39:03.197Z,4.78
2024-04-08T01:41:30.619Z,4.27
2024-04-08T01:43:58.025Z,4.00
2024-04-08T01:46:25.409Z,3.88
2024-04-08T01:48:52.348Z,3.70
2024-04-08T01:51:19.669Z,4.05
2024-04-08T01:53:47.155Z,3.90
2024-04-08T01:56:14.099Z,4.05
2024-04-08T01:58:41.033Z,3.50
2024-04-08T02:01:07.989Z,4.28
2024-04-08T02:03:35.423Z,4.10
2024-04-08T02:06:02.860Z,3.27
2024-04-08T02:08:30.292Z,3.65
2024-04-08T02:10:57.756Z,3.08
2024-04-08T02:13:25.179Z,3.58
2024-04-08T02:15:52.123Z,3.53
2024-04-08T02:18:19.455Z,3.78
2024-04-08T02:20:46.569Z,3.20
2024-04-08T02:23:13.955Z,4.63
2024-04-08T02:25:43.806Z,3.60
2024-04-08T02:28:11.206Z,4.00
2024-04-08T02:30:39.403Z,3.57
2024-04-08T02:33:07.363Z,3.80
2024-04-08T02:35:41.116Z,4.00
2024-04-08T02:38:09.019Z,3.63
2024-04-08T02:40:36.448Z,3.83
2024-04-08T02:43:05.223Z,4.20
2024-04-08T02:45:32.226Z,3.88
2024-04-08T02:47:59.990Z,4.15
2024-04-08T02:50:27.556Z,4.05
2024-04-08T02:52:54.552Z,4.10
2024-04-08T02:55:21.587Z,4.00
2024-04-08T02:57:49.808Z,3.38
2024-04-08T03:00:16.960Z,4.35
2024-04-08T03:02:46.894Z,4.03
2024-04-08T03:05:14.698Z,3.90
2024-04-08T03:07:42.049Z,3.97
2024-04-08T03:10:09.577Z,4.18
2024-04-08T03:12:37.300Z,4.20
2024-04-08T03:15:04.798Z,4.47
2024-04-08T03:17:31.776Z,4.22
2024-04-08T03:19:59.473Z,4.50
2024-04-08T03:22:27.067Z,3.92
2024-04-08T03:24:54.484Z,4.40
2024-04-08T03:27:21.422Z,4.28
2024-04-08T03:29:48.910Z,4.30
2024-04-08T03:32:16.332Z,3.97
2024-04-08T03:34:44.808Z,4.30
2024-04-08T03:37:12.558Z,3.92
2024-04-08T03:39:39.470Z,4.60
2024-04-08T03:42:07.806Z,3.80
2024-04-08T03:44:34.777Z,4.33
2024-04-08T03:47:02.364Z,4.10
2024-04-08T03:49:29.796Z,4.70
2024-04-08T03:51:56.698Z,3.90
2024-04-08T03:54:24.046Z,4.10
2024-04-08T03:56:51.391Z,4.43
2024-04-08T03:59:18.916Z,4.20
2024-04-08T04:01:46.258Z,4.50
2024-04-08T04:04:13.210Z,4.80
2024-04-08T04:06:40.572Z,4.07
2024-04-08T04:09:09.045Z,4.10
2024-04-08T04:11:35.999Z,4.60
2024-04-08T04:14:03.994Z,5.13
2024-04-08T04:16:31.567Z,3.90
2024-04-08T04:18:58.524Z,4.43
2024-04-08T04:21:25.876Z,4.00
2024-04-08T04:23:53.262Z,3.63
2024-04-08T04:26:21.342Z,4.15
2024-04-08T04:28:48.719Z,4.10
2024-04-08T04:31:16.067Z,4.55
2024-04-08T04:33:43.487Z,4.50
2024-04-08T04:36:10.819Z,4.30
2024-04-08T04:38:38.217Z,4.72
2024-04-08T04:41:07.054Z,4.03
2024-04-08T04:43:35.396Z,4.63
2024-04-08T04:46:02.770Z,3.90
2024-04-08T04:48:30.205Z,4.45
2024-04-08T04:50:57.282Z,3.80
2024-04-08T04:53:24.226Z,4.40
2024-04-08T04:55:52.823Z,4.57
2024-04-08T04:58:20.367Z,4.27
2024-04-08T05:00:48.416Z,4.38
2024-04-08T05:03:15.386Z,4.22
2024-04-08T05:05:42.800Z,4.80
2024-04-08T05:08:10.233Z,4.30
2024-04-08T05:10:37.372Z,4.07
2024-04-08T05:13:04.724Z,4.85
2024-04-08T05:15:32.188Z,4.38
2024-04-08T05:17:59.660Z,4.03
2024-04-08T05:20:30.139Z,3.90
2024-04-08T05:22:57.127Z,4.10
2024-04-08T05:25:24.100Z,3.92
2024-04-08T05:27:51.051Z,3.97
2024-04-08T05:30:18.523Z,4.20
2024-04-08T05:32:45.918Z,4.50
2024-04-08T05:35:12.881Z,4.30
2024-04-08T05:37:40.318Z,4.60
2024-04-08T05:40:10.488Z,4.70
2024-04-08T05:42:37.445Z,4.68
2024-04-08T05:45:07.169Z,4.80
2024-04-08T05:47:34.640Z,4.33
2024-04-08T05:50:02.298Z,4.25
2024-04-08T05:52:29.678Z,3.97
2024-04-08T05:54:57.077Z,4.85
2024-04-08T05:57:25.076Z,4.47
2024-04-08T05:59:52.486Z,4.83
2024-04-08T06:02:19.713Z,4.30
2024-04-08T06:04:49.870Z,4.65
2024-04-08T06:07:19.606Z,4.50
2024-04-08T06:09:46.554Z,4.03
2024-04-08T06:12:13.911Z,4.67
2024-04-08T06:14:41.055Z,3.78
2024-04-08T06:17:08.477Z,4.68
2024-04-08T06:19:35.860Z,4.40
2024-04-08T06:22:03.237Z,4.05
2024-04-08T06:24:30.201Z,4.77
2024-04-08T06:26:57.606Z,3.97
2024-04-08T06:29:24.563Z,4.15
2024-04-08T06:31:51.507Z,4.72
2024-04-08T06:34:18.866Z,4.35
2024-04-08T06:36:46.236Z,4.20
2024-04-08T06:39:13.244Z,4.15
2024-04-08T06:41:42.107Z,4.80
2024-04-08T06:44:09.708Z,4.85
2024-04-08T06:46:37.068Z,4.55
2024-04-08T06:49:04.440Z,4.70
2024-04-08T06:51:32.984Z,4.45
2024-04-08T06:54:00.417Z,5.03
2024-04-08T06:56:27.803Z,7.43
2024-04-08T06:58:55.171Z,5.07
2024-04-08T07:01:22.815Z,4.73
2024-04-08T07:03:50.263Z,5.00
2024-04-08T07:06:17.675Z,4.40
2024-04-08T07:08:45.083Z,4.07
2024-04-08T07:11:12.058Z,4.28
2024-04-08T07:13:39.564Z,4.40
2024-04-08T07:16:07.013Z,4.80
2024-04-08T07:18:34.354Z,4.93
2024-04-08T07:21:03.913Z,4.50
2024-04-08T07:23:31.403Z,4.68
2024-04-08T07:25:58.363Z,5.23
2024-04-08T07:28:25.970Z,5.60
2024-04-08T07:30:53.364Z,4.55
2024-04-08T07:33:20.870Z,5.63
2024-04-08T07:35:47.906Z,5.50
2024-04-08T07:38:15.328Z,5.67
2024-04-08T07:40:43.619Z,5.40
2024-04-08T07:43:10.992Z,5.47
2024-04-08T07:45:39.954Z,5.65
2024-04-08T07:48:08.258Z,4.93
2024-04-08T07:50:38.338Z,4.73
2024-04-08T07:53:05.962Z,5.20
2024-04-08T07:55:33.355Z,5.15
2024-04-08T07:58:00.723Z,5.45
2024-04-08T08:00:28.422Z,5.00
2024-04-08T08:02:55.771Z,4.87
2024-04-08T08:05:23.149Z,5.45
2024-04-08T08:07:51.246Z,4.97
2024-04-08T08:10:21.657Z,4.78
2024-04-08T08:12:49.107Z,5.00
2024-04-08T08:15:16.749Z,4.83
2024-04-08T08:17:44.206Z,4.57
2024-04-08T08:20:11.279Z,4.32
2024-04-08T08:22:38.366Z,4.28
2024-04-08T08:25:05.897Z,4.50
2024-04-08T08:27:32.894Z,4.70
2024-04-08T08:29:59.881Z,4.35
2024-04-08T08:32:26.983Z,4.60
2024-04-08T08:34:54.758Z,3.88
2024-04-08T08:37:22.127Z,3.88
2024-04-08T08:39:51.549Z,4.18
2024-04-08T08:42:22.945Z,4.10
2024-04-08T08:44:56.508Z,4.32
2024-04-08T08:47:24.584Z,4.45
2024-04-08T08:49:56.601Z,4.10
2024-04-08T08:52:24.085Z,3.88
2024-04-08T08:54:54.774Z,4.45
2024-04-08T08:57:23.034Z,4.50
2024-04-08T08:59:52.471Z,5.43
2024-04-08T09:02:19.901Z,5.30
2024-04-08T09:04:49.191Z,6.28
2024-04-08T09:07:16.898Z,5.13
2024-04-08T09:09:54.550Z,4.85
2024-04-08T09:12:22.345Z,4.63
2024-04-08T09:14:50.665Z,4.50
2024-04-08T09:17:18.100Z,4.35
2024-04-08T09:19:45.456Z,3.63
2024-04-08T09:22:13.181Z,5.60
2024-04-08T09:24:40.303Z,5.13
2024-04-08T09:27:08.231Z,4.20
2024-04-08T09:29:35.588Z,4.65
2024-04-08T09:32:03.127Z,4.60
2024-04-08T09:34:33.299Z,4.50
2024-04-08T09:37:01.713Z,4.75
2024-04-08T09:39:31.206Z,4.53
2024-04-08T09:42:00.285Z,4.85
2024-04-08T09:44:32.021Z,5.45
2024-04-08T09:47:03.227Z,4.93
2024-04-08T09:49:41.596Z,5.03
2024-04-08T09:52:14.738Z,5.28
2024-04-08T09:54:41.750Z,4.88
2024-04-08T09:57:11.818Z,4.60
2024-04-08T09:59:39.778Z,4.65
2024-04-08T10:02:17.126Z,4.68
2024-04-08T10:04:44.724Z,4.95
2024-04-08T10:07:12.979Z,4.95
2024-04-08T10:09:40.535Z,4.82
2024-04-08T10:12:09.775Z,4.50
2024-04-08T10:14:37.217Z,4.45
2024-04-08T10:17:04.711Z,4.68
2024-04-08T10:19:32.084Z,3.97
2024-04-08T10:22:03.446Z,3.08
2024-04-08T10:24:39.220Z,4.32
2024-04-08T10:27:09.574Z,3.90
2024-04-08T10:29:37.712Z,4.15
2024-04-08T10:32:08.158Z,3.80
2024-04-08T10:34:36.007Z,4.07
2024-04-08T10:37:03.708Z,4.18
2024-04-08T10:39:31.046Z,3.80
2024-04-08T10:41:59.756Z,3.85
2024-04-08T10:44:33.089Z,3.63
2024-04-08T10:47:00.997Z,3.70
2024-04-08T10:49:28.079Z,3.80
2024-04-08T10:51:55.390Z,3.45
2024-04-08T10:54:22.417Z,4.38
2024-04-08T10:56:50.341Z,4.57
2024-04-08T10:59:17.768Z,3.65
2024-04-08T11:01:45.511Z,4.60
2024-04-08T11:04:13.352Z,4.57
2024-04-08T11:06:41.059Z,4.53
2024-04-08T11:09:08.157Z,4.18
2024-04-08T11:11:35.179Z,5.65
2024-04-08T11:14:06.008Z,5.25
2024-04-08T11:16:33.902Z,4.93
2024-04-08T11:19:02.564Z,4.80
2024-04-08T11:21:29.705Z,5.28
2024-04-08T11:23:57.178Z,4.82
2024-04-08T11:26:24.203Z,5.47
2024-04-08T11:28:51.572Z,4.60
2024-04-08T11:31:18.907Z,4.85
2024-04-08T11:33:46.630Z,5.60
2024-04-08T11:36:14.155Z,5.30
2024-04-08T11:38:44.186Z,4.85
2024-04-08T11:41:11.576Z,5.43
2024-04-08T11:43:39.273Z,5.85
2024-04-08T11:46:07.781Z,7.05
2024-04-08T11:48:39.205Z,5.18
2024-04-08T11:51:06.839Z,4.60
2024-04-08T11:53:34.515Z,4.63
2024-04-08T11:56:02.292Z,4.00
2024-04-08T11:58:29.449Z,4.00
2024-04-08T12:00:57.001Z,4.30
2024-04-08T12:03:24.078Z,4.03
2024-04-08T12:05:51.580Z,4.22
2024-04-08T12:08:19.004Z,4.07
2024-04-08T12:10:46.378Z,3.67
2024-04-08T12:13:18.400Z,4.25
2024-04-08T12:15:46.301Z,4.15
2024-04-08T12:18:13.911Z,3.92
2024-04-08T12:20:41.337Z,4.45
2024-04-08T12:23:12.787Z,4.13
2024-04-08T12:25:40.661Z,4.10
2024-04-08T12:28:10.341Z,4.53
2024-04-08T12:30:37.741Z,4.78
2024-04-08T12:33:05.374Z,4.38
2024-04-08T12:35:32.909Z,5.20
2024-04-08T12:38:00.306Z,4.95
2024-04-08T12:40:27.958Z,5.85
2024-04-08T12:42:55.335Z,6.10
2024-04-08T12:45:22.689Z,5.97
2024-04-08T12:47:50.464Z,6.03
2024-04-08T12:50:17.676Z,5.40
2024-04-08T12:52:45.288Z,5.60
2024-04-08T12:55:12.555Z,4.75
2024-04-08T12:57:42.911Z,5.32
2024-04-08T13:00:12.204Z,5.30
2024-04-08T13:02:39.631Z,5.78
2024-04-08T13:05:07.228Z,5.78
2024-04-08T13:07:34.659Z,6.18
2024-04-08T13:10:02.007Z,6.47
2024-04-08T13:12:29.531Z,6.30
2024-04-08T13:14:56.541Z,6.70
2024-04-08T13:17:24.012Z,5.65
2024-04-08T13:19:51.006Z,6.43
2024-04-08T13:22:18.370Z,7.18
2024-04-08T13:24:48.067Z,6.68
2024-04-08T13:27:15.529Z,6.82
2024-04-08T13:29:42.545Z,7.57
2024-04-08T13:32:12.477Z,6.82
2024-04-08T13:34:39.621Z,7.30
2024-04-08T13:37:07.011Z,7.40
2024-04-08T13:39:34.450Z,7.85
2024-04-08T13:42:01.492Z,7.90
2024-04-08T13:44:28.459Z,7.13
2024-04-08T13:46:55.848Z,8.10
2024-04-08T13:49:23.292Z,7.93
2024-04-08T13:51:54.577Z,7.57
2024-04-08T13:54:26.943Z,8.27
2024-04-08T13:56:54.295Z,8.27
2024-04-08T13:59:22.659Z,8.35
2024-04-08T14:01:50.402Z,8.63
2024-04-08T14:04:19.417Z,8.23
2024-04-08T14:06:46.519Z,8.00
2024-04-08T14:09:13.742Z,8.43
2024-04-08T14:11:44.531Z,8.13
2024-04-08T14:14:12.896Z,7.20
2024-04-08T14:16:40.402Z,6.30
2024-04-08T14:19:07.428Z,7.90
2024-04-08T14:21:36.850Z,7.20
2024-04-08T14:24:04.534Z,6.20
2024-04-08T14:26:32.054Z,6.10
2024-04-08T14:28:59.061Z,7.07
2024-04-08T14:31:26.768Z,6.20
2024-04-08T14:33:55.191Z,6.07
2024-04-08T14:36:22.341Z,5.25
2024-04-08T14:39:05.399Z,6.22
2024-04-08T14:41:36.380Z,5.33
2024-04-08T14:44:10.420Z,5.55
2024-04-08T14:46:41.976Z,5.75
2024-04-08T14:49:09.414Z,6.68
2024-04-08T14:51:40.135Z,6.18
2024-04-08T14:54:09.299Z,5.50
2024-04-08T14:56:37.145Z,5.40
2024-04-08T14:59:04.494Z,5.28
2024-04-08T15:01:31.865Z,6.07
2024-04-08T15:03:59.632Z,5.60
2024-04-08T15:06:27.301Z,5.00
2024-04-08T15:08:54.400Z,4.85
2024-04-08T15:11:25.722Z,5.00
2024-04-08T15:13:53.220Z,4.70
2024-04-08T15:16:20.610Z,4.85
2024-04-08T15:18:48.092Z,4.10
2024-04-08T15:21:15.182Z,4.05
2024-04-08T15:23:42.612Z,4.20
2024-04-08T15:26:10.254Z,4.70
2024-04-08T15:28:37.270Z,4.70
2024-04-08T15:31:08.056Z,5.20
2024-04-08T15:33:35.756Z,4.70
2024-04-08T15:36:06.355Z,5.22
2024-04-08T15:38:34.062Z,4.88
2024-04-08T15:41:01.855Z,5.20
2024-04-08T15:43:29.879Z,4.87
2024-04-08T15:46:00.569Z,5.00
2024-04-08T15:48:29.524Z,4.60
2024-04-08T15:50:57.010Z,4.60
2024-04-08T15:53:24.576Z,4.18
2024-04-08T15:55:51.535Z,4.80
2024-04-08T15:58:18.930Z,4.38
2024-04-08T16:00:56.014Z,3.80
2024-04-08T16:03:23.517Z,4.10
2024-04-08T16:05:51.435Z,4.60
2024-04-08T16:08:18.963Z,4.50
2024-04-08T16:10:46.369Z,4.25
2024-04-08T16:13:13.341Z,4.47
2024-04-08T16:15:48.878Z,4.45
2024-04-08T16:18:15.887Z,4.40
2024-04-08T16:20:43.600Z,4.63
2024-04-08T16:23:24.503Z,4.22
2024-04-08T16:25:59.864Z,4.40
2024-04-08T16:28:27.359Z,5.07
2024-04-08T16:31:05.408Z,4.50
2024-04-08T16:33:32.995Z,4.13
2024-04-08T16:36:00.902Z,4.70
2024-04-08T16:38:28.694Z,4.20
2024-04-08T16:40:56.159Z,5.47
2024-04-08T16:43:24.889Z,4.80
2024-04-08T16:45:56.032Z,4.20
2024-04-08T16:48:26.069Z,4.10
2024-04-08T16:50:57.412Z,4.25
2024-04-08T16:53:25.117Z,4.20
2024-04-08T16:55:56.110Z,4.43
2024-04-08T16:58:24.002Z,4.13
2024-04-08T17:00:52.001Z,4.30
2024-04-08T17:03:19.911Z,3.90
2024-04-08T17:05:51.189Z,5.10
2024-04-08T17:08:18.140Z,3.97
2024-04-08T17:10:45.229Z,4.87
2024-04-08T17:13:12.675Z,4.20
2024-04-08T17:15:39.690Z,4.68
2024-04-08T17:18:07.856Z,4.75
2024-04-08T17:20:35.015Z,4.80
2024-04-08T17:23:02.623Z,5.40
2024-04-08T17:25:30.101Z,4.78
2024-04-08T17:27:57.001Z,4.60
2024-04-08T17:30:24.401Z,4.05
2024-04-08T17:32:51.899Z,4.80
2024-04-08T17:35:21.619Z,4.30
2024-04-08T17:37:49.450Z,4.20
2024-04-08T17:40:16.835Z,4.80
2024-04-08T17:42:45.136Z,4.65
2024-04-08T17:45:13.220Z,4.85
2024-04-08T17:47:40.390Z,5.55
2024-04-08T17:50:08.242Z,4.43
2024-04-08T17:52:35.874Z,4.75
2024-04-08T17:55:03.247Z,4.40
2024-04-08T17:57:30.797Z,4.50
2024-04-08T17:59:58.564Z,4.70
2024-04-08T18:02:28.486Z,12.68
2024-04-08T18:04:57.213Z,7.15
2024-04-08T18:07:24.935Z,5.57
2024-04-08T18:09:54.889Z,6.85
2024-04-08T18:12:21.885Z,6.57
2024-04-08T18:14:49.387Z,6.63
2024-04-08T18:17:21.210Z,6.63
2024-04-08T18:19:49.331Z,7.25
2024-04-08T18:22:16.696Z,6.55
2024-04-08T18:24:44.211Z,7.03
2024-04-08T18:27:11.203Z,7.20
2024-04-08T18:29:38.174Z,7.20
2024-04-08T18:32:05.821Z,7.32
2024-04-08T18:34:32.900Z,7.72
2024-04-08T18:37:00.401Z,8.13
2024-04-08T18:39:28.809Z,8.43
2024-04-08T18:41:55.751Z,7.60
2024-04-08T18:44:22.779Z,7.28
2024-04-08T18:46:49.699Z,8.27
2024-04-08T18:49:16.721Z,7.47
2024-04-08T18:51:44.253Z,7.00
2024-04-08T18:54:11.698Z,7.70
2024-04-08T18:56:39.135Z,7.47
2024-04-08T18:59:06.492Z,9.45
2024-04-08T19:01:34.025Z,7.90
2024-04-08T19:04:01.602Z,8.30
2024-04-08T19:06:28.723Z,8.35
2024-04-08T19:08:57.106Z,7.82
2024-04-08T19:11:32.087Z,7.35
2024-04-08T19:14:04.829Z,7.43
2024-04-08T19:16:32.892Z,9.30
2024-04-08T19:19:00.439Z,8.40
2024-04-08T19:21:27.558Z,8.75
2024-04-08T19:23:54.676Z,8.82
2024-04-08T19:26:22.067Z,8.00
2024-04-08T19:28:49.782Z,8.90
2024-04-08T19:31:18.064Z,10.07
2024-04-08T19:33:45.597Z,8.68
2024-04-08T19:36:13.007Z,10.13
2024-04-08T19:38:40.553Z,9.65
2024-04-08T19:41:08.031Z,8.30
2024-04-08T19:43:35.443Z,9.23
2024-04-08T19:46:14.453Z,9.27
2024-04-08T19:48:43.287Z,10.63
2024-04-08T19:51:11.423Z,10.23
2024-04-08T19:53:39.396Z,10.07
2024-04-08T19:56:13.412Z,10.98
2024-04-08T19:58:41.511Z,10.77
2024-04-08T20:01:09.129Z,10.60
2024-04-08T20:03:43.176Z,9.43
2024-04-08T20:06:10.749Z,9.80
2024-04-08T20:08:38.199Z,10.90
2024-04-08T20:11:07.485Z,10.70
2024-04-08T20:13:34.881Z,11.02
2024-04-08T20:16:16.126Z,10.80
2024-04-08T20:18:44.096Z,10.48
2024-04-08T20:21:13.172Z,11.40
2024-04-08T20:23:40.294Z,10.98
2024-04-08T20:26:07.989Z,11.10
2024-04-08T20:28:35.273Z,10.80
2024-04-08T20:31:07.234Z,12.18
2024-04-08T20:33:35.599Z,12.27
2024-04-08T20:36:13.453Z,12.43
2024-04-08T20:38:42.996Z,11.38
2024-04-08T20:41:13.815Z,12.40
2024-04-08T20:43:42.132Z,12.73
2024-04-08T20:46:09.887Z,12.43
2024-04-08T20:48:37.656Z,12.70
2024-04-08T20:51:06.897Z,11.98
2024-04-08T20:53:34.495Z,11.60
2024-04-08T20:56:02.274Z,13.02
2024-04-08T20:58:33.577Z,12.45
2024-04-08T21:01:11.773Z,12.70
2024-04-08T21:03:40.103Z,12.35
2024-04-08T21:06:09.205Z,13.10
2024-04-08T21:08:41.058Z,13.10
2024-04-08T21:11:13.114Z,11.32
2024-04-08T21:13:41.017Z,12.75
2024-04-08T21:16:08.525Z,12.73
2024-04-08T21:18:36.677Z,12.75
2024-04-08T21:21:13.695Z,12.73
2024-04-08T21:23:44.828Z,12.98
2024-04-08T21:26:19.479Z,13.13
2024-04-08T21:28:48.223Z,12.85
2024-04-08T21:31:16.299Z,13.27
2024-04-08T21:33:47.334Z,11.80
2024-04-08T21:36:15.311Z,13.05
2024-04-08T21:38:42.730Z,12.13
2024-04-08T21:41:11.348Z,12.75
2024-04-08T21:43:39.160Z,14.00
2024-04-08T21:46:07.429Z,13.15
2024-04-08T21:48:35.192Z,13.50
2024-04-08T21:51:05.637Z,12.55
2024-04-08T21:53:32.860Z,14.10
2024-04-08T21:56:05.268Z,13.32
2024-04-08T21:58:34.952Z,13.98
2024-04-08T22:01:06.041Z,12.07
2024-04-08T22:03:34.231Z,13.77
2024-04-08T22:06:02.080Z,12.13
2024-04-08T22:08:29.831Z,12.75
2024-04-08T22:10:57.819Z,13.60
2024-04-08T22:13:25.443Z,13.30
2024-04-08T22:15:52.866Z,13.18
2024-04-08T22:18:24.659Z,12.77
2024-04-08T22:20:53.318Z,12.85
2024-04-08T22:23:21.332Z,14.05
2024-04-08T22:25:48.976Z,12.65
2024-04-08T22:28:16.490Z,12.70
2024-04-08T22:30:43.942Z,12.30
2024-04-08T22:33:11.486Z,12.50
2024-04-08T22:35:39.210Z,11.68
2024-04-08T22:38:06.158Z,13.32
2024-04-08T22:40:33.148Z,11.05
2024-04-08T22:43:00.532Z,12.32
2024-04-08T22:45:27.541Z,13.70
2024-04-08T22:47:54.772Z,12.75
2024-04-08T22:50:22.266Z,11.43
2024-04-08T22:52:49.769Z,13.57
2024-04-08T22:55:16.920Z,13.93
2024-04-08T22:57:44.934Z,15.20
2024-04-08T23:00:14.140Z,14.30
2024-04-08T23:02:42.151Z,14.65
2024-04-08T23:05:10.220Z,13.73
2024-04-08T23:07:37.712Z,14.93
2024-04-08T23:10:06.053Z,15.23
2024-04-08T23:12:33.742Z,14.80
2024-04-08T23:15:01.087Z,13.82
2024-04-08T23:17:28.650Z,12.75
2024-04-08T23:19:55.627Z,10.60
2024-04-08T23:22:23.005Z,10.60
2024-04-08T23:24:50.380Z,10.48
2024-04-08T23:27:17.384Z,8.73
2024-04-08T23:29:44.379Z,7.40
2024-04-08T23:32:11.718Z,5.82
2024-04-08T23:34:39.675Z,5.82
2024-04-08T23:37:07.303Z,5.82
2024-04-08T23:39:34.797Z,5.38
2024-04-08T23:42:02.234Z,5.10
2024-04-08T23:44:29.801Z,5.90
2024-04-08T23:46:57.210Z,7.07
2024-04-08T23:49:24.679Z,4.75
2024-04-08T23:51:52.047Z,6.05
2024-04-08T23:54:19.450Z,6.13
2024-04-08T23:56:46.866Z,5.50
2024-04-08T23:59:13.800Z,6.00
